CW0343 Mareeba AU current weather conditions

sailwx.info

Wind from 071

Air temperature 22.2° C
Dewpoint 21.6° C

Last reported at 2020-Jan-27 11:53 UTC.
Time now 2020-Jan-27 13:08 UTC

Location: S 17°01' E 145°20'.
View on Google Maps.

See reports from other nearby stations

  
Tides and Currents Weather Stations Pressure Air Temp Water Temp Dewpoint Dewpoint Depression Visibility Wind Speed Wind Dir Waves Ship Positions
date/time (UTC)wind fromknots sea level pressurealtimeterstation pressurevisibilityair tempwater tempwave heightnotes
2020-Jan-27 11:53 071 22.2
2020-Jan-27 11:33 071 1 gusting 2 22.2
2020-Jan-27 11:03 124 22.8
2020-Jan-27 10:53 128 22.8
2020-Jan-27 10:33 128 22.2
2020-Jan-27 10:23 128 22.2
2020-Jan-27 10:13 128 22.2
2020-Jan-27 09:43 128 22.2
2020-Jan-27 09:33 128 22.2
2020-Jan-27 09:13 128 22.2
2020-Jan-27 09:03 128 22.8
2020-Jan-27 08:53 128 22.8
2020-Jan-27 08:43 128 22.2
2020-Jan-27 08:33 128 22.2
2020-Jan-27 08:23 128 22.2
2020-Jan-27 08:13 128 22.2
2020-Jan-27 07:43 291 22.2
2020-Jan-27 07:33 295 1 gusting 2 22.2
2020-Jan-27 07:23 238 3 gusting 6 22.2
2020-Jan-27 07:03 286 4 gusting 13 22.8
2020-Jan-27 06:53 305 8 gusting 17 24.4
2020-Jan-27 06:23 089 2 gusting 6 23.9
2020-Jan-27 06:13 089 4 gusting 8 23.3
2020-Jan-27 06:03 084 4 gusting 10 23.9
2020-Jan-27 05:23 036 0 gusting 7 25.6
2020-Jan-27 05:13 340 4 gusting 13 26.7
2020-Jan-27 04:53 001 6 gusting 12 29.4
2020-Jan-27 04:43 050 4 gusting 8 29.4
2020-Jan-27 04:33 032 4 gusting 8 31.1
2020-Jan-27 04:23 334 1 gusting 6 31.7
2020-Jan-27 04:13 039 1 gusting 7 31.7
2020-Jan-27 03:53 067 2 gusting 8 31.1
2020-Jan-27 03:43 086 2 gusting 7 31.1
2020-Jan-27 03:33 082 3 gusting 7 30.6
2020-Jan-27 03:23 042 2 gusting 5 30.0
2020-Jan-27 03:13 005 2 gusting 6 30.0
2020-Jan-27 03:03 039 2 gusting 8 30.0
2020-Jan-27 02:43 28.9
2020-Jan-27 02:33 031 0 gusting 7 30.0
2020-Jan-27 02:23 021 30.0
2020-Jan-27 02:13 348 2 gusting 6 29.4
2020-Jan-27 02:03 042 2 gusting 10 29.4
2020-Jan-27 01:53 082 1 gusting 7 29.4
2020-Jan-27 01:43 052 4 gusting 6 28.9
2020-Jan-27 01:33 346 0 gusting 4 28.3
2020-Jan-27 01:23 312 2 gusting 7 28.3
2020-Jan-27 01:13 297 1 gusting 7 28.9
2020-Jan-27 00:53 263 2 gusting 7 27.8
2020-Jan-27 00:43 241 1 gusting 5 27.8
2020-Jan-27 00:33 288 2 gusting 5 27.2
2020-Jan-26 23:33 213 1 gusting 4 26.1
2020-Jan-26 23:23 228 4 gusting 6 25.6
2020-Jan-26 23:03 162 1 gusting 5 25.0
2020-Jan-26 22:53 108 24.4
2020-Jan-26 22:43 061 23.9
2020-Jan-26 22:33 177 23.9
2020-Jan-26 22:23 175 23.9
2020-Jan-26 22:13 175 1 gusting 2 23.9
2020-Jan-26 22:03 038 23.3
2020-Jan-26 21:53 049 23.3
2020-Jan-26 21:43 049 23.3
2020-Jan-26 21:33 049 23.3
2020-Jan-26 21:23 049 22.8
2020-Jan-26 21:13 049 22.8
2020-Jan-26 21:03 049 22.8
2020-Jan-26 20:53 049 22.8
2020-Jan-26 20:43 049 22.8
2020-Jan-26 20:33 049 22.8
2020-Jan-26 20:23 049 22.8
2020-Jan-26 20:13 049 22.8
2020-Jan-26 20:03 049 22.8
2020-Jan-26 19:53 049 22.8
2020-Jan-26 19:43 049 22.8
2020-Jan-26 19:33 049 22.8
2020-Jan-26 19:23 049 22.8
2020-Jan-26 19:13 049 0 gusting 2 22.8
2020-Jan-26 17:53 028 22.8
2020-Jan-26 17:43 028 22.8
2020-Jan-26 17:33 028 22.8
2020-Jan-26 17:13 028 22.8
2020-Jan-26 17:03 028 22.8
2020-Jan-26 16:53 028 22.8
2020-Jan-26 16:43 009 1 gusting 2 22.8
2020-Jan-26 16:13 262 0 gusting 2 23.3
2020-Jan-26 16:03 021 23.3
2020-Jan-26 15:43 021 22.8
2020-Jan-26 15:23 021 23.3
2020-Jan-26 15:03 021 23.3
2020-Jan-26 14:53 018 0 gusting 2 23.3
2020-Jan-26 14:43 019 22.8
2020-Jan-26 14:33 036 1 gusting 2 22.8
2020-Jan-26 14:23 028 1 gusting 4 22.8
2020-Jan-26 14:13 015 1 gusting 4 22.8
2020-Jan-26 14:03 028 1 gusting 4 22.8
2020-Jan-26 13:53 019 2 gusting 4 22.8
2020-Jan-26 13:33 015 1 gusting 6 23.3
2020-Jan-26 13:13 033 1 gusting 5 23.3
2020-Jan-26 13:03 056 2 gusting 5 23.3
2020-Jan-26 12:53 019 2 gusting 5 23.3
2020-Jan-26 12:43 005 2 gusting 4 23.3
2020-Jan-26 12:33 043 2 gusting 4 23.3
2020-Jan-26 12:23 028 1 gusting 2 23.9
2020-Jan-26 12:13 057 0 gusting 2 23.9
2020-Jan-26 12:03 057 1 gusting 2 23.9
2020-Jan-26 11:43 057 1 gusting 2 23.3
2020-Jan-26 11:33 046 2 gusting 5 23.3
2020-Jan-26 11:23 038 2 gusting 5 23.3
2020-Jan-26 11:13 047 4 gusting 7 23.3
2020-Jan-26 11:03 044 2 gusting 6 23.9
2020-Jan-26 10:43 047 2 gusting 4 23.9
2020-Jan-26 10:33 057 2 gusting 5 23.9
2020-Jan-26 10:13 060 2 gusting 5 23.9
2020-Jan-26 10:03 051 4 gusting 6 23.9
2020-Jan-26 09:53 057 2 gusting 4 23.9
2020-Jan-26 09:33 038 0 gusting 5 23.9
2020-Jan-26 09:13 063 24.4
2020-Jan-26 09:03 107 24.4
2020-Jan-26 08:53 154 0 gusting 4 24.4
2020-Jan-26 08:43 150 1 gusting 2 24.4
2020-Jan-26 08:33 073 1 gusting 4 24.4
2020-Jan-26 08:03 050 1 gusting 4 23.9
2020-Jan-26 07:53 050 1 gusting 4 23.9
2020-Jan-26 07:43 037 1 gusting 2 23.9
2020-Jan-26 07:23 057 3 gusting 6 23.9
2020-Jan-26 07:13 078 2 gusting 6 23.9
2020-Jan-26 06:53 034 4 gusting 7 23.9
2020-Jan-26 06:33 060 3 gusting 6 23.9
2020-Jan-26 06:23 078 2 gusting 7 23.3
2020-Jan-26 06:13 083 4 gusting 8 23.9
2020-Jan-26 06:03 079 6 gusting 10 23.9
2020-Jan-26 05:53 069 4 gusting 6 24.4
2020-Jan-26 05:43 077 4 gusting 8 24.4
2020-Jan-26 05:33 027 2 gusting 6 24.4
2020-Jan-26 05:23 010 2 gusting 6 25.0
2020-Jan-26 04:53 012 5 gusting 10 25.6
2020-Jan-26 04:23 315 2 gusting 6 26.7
2020-Jan-26 03:53 061 4 gusting 6 25.6
2020-Jan-26 03:43 127 2 gusting 5 25.6
2020-Jan-26 03:33 160 4 gusting 10 26.7
2020-Jan-26 03:23 229 5 gusting 11 29.4
2020-Jan-26 03:03 211 4 gusting 8 31.1
2020-Jan-26 02:53 213 6 gusting 12 32.2
2020-Jan-26 02:43 187 3 gusting 7 32.2
2020-Jan-26 02:33 317 2 gusting 10 32.2
2020-Jan-26 02:13 276 6 gusting 8 31.7
2020-Jan-26 02:03 233 4 gusting 7 31.7
2020-Jan-26 01:33 239 4 gusting 7 31.1
2020-Jan-26 01:13 244 5 gusting 10 30.6
2020-Jan-26 00:53 226 1 gusting 6 29.4
2020-Jan-26 00:33 181 2 gusting 6 28.9
2020-Jan-26 00:13 273 1 gusting 6 28.3
2020-Jan-26 00:03 250 0 gusting 5 27.8
2020-Jan-25 23:53 265 2 gusting 6 28.3
2020-Jan-25 23:23 165 2 gusting 4 27.2
2020-Jan-25 22:53 241 2 gusting 4 25.6
2020-Jan-25 22:43 232 25.0
2020-Jan-25 22:33 161 0 gusting 2 25.0
2020-Jan-25 22:23 160 0 gusting 2 25.0
2020-Jan-25 22:13 155 24.4
2020-Jan-25 22:03 155 0 gusting 2 24.4
2020-Jan-25 21:53 150 0 gusting 2 23.9
2020-Jan-25 21:43 135 0 gusting 2 23.9
2020-Jan-25 21:33 052 23.9
2020-Jan-25 21:23 052 23.3
2020-Jan-25 21:13 052 23.3
2020-Jan-25 21:03 052 23.3
2020-Jan-25 20:53 052 22.8
2020-Jan-25 20:43 052 22.8
2020-Jan-25 20:33 052 22.8
2020-Jan-25 20:23 052 22.8
2020-Jan-25 20:13 052 22.8
2020-Jan-25 19:53 052 22.8
2020-Jan-25 19:33 052 22.8
2020-Jan-25 19:23 052 22.8
2020-Jan-25 19:13 052 22.8
2020-Jan-25 18:53 052 22.8
2020-Jan-25 18:23 052 22.8
2020-Jan-25 18:03 052 22.8
2020-Jan-25 17:53 052 22.8
2020-Jan-25 17:43 052 22.8
2020-Jan-25 17:33 052 22.8
2020-Jan-25 16:53 052 22.8
2020-Jan-25 16:43 052 22.8
2020-Jan-25 16:33 052 22.8
2020-Jan-25 15:53 052 22.8
2020-Jan-25 15:43 052 22.8
2020-Jan-25 15:33 052 22.8
2020-Jan-25 15:23 052 22.8
2020-Jan-25 14:53 052 23.3
2020-Jan-25 14:33 052 23.3
2020-Jan-25 14:23 052 23.3
2020-Jan-25 14:13 051 23.3
2020-Jan-25 13:53 049 0 gusting 4 23.3
2020-Jan-25 13:43 051 2 gusting 5 23.9
2020-Jan-25 13:33 031 1 gusting 4 23.9
2020-Jan-25 13:23 045 4 gusting 5 24.4